sensor_id;sensor_type;location;lat;lon;timestamp;P1;durP1;ratioP1;P2;durP2;ratioP2
51525;SDS011;37611;51.794;21.590;2023-05-16T00:00:29;11.50;;;10.40;;
51525;SDS011;37611;51.794;21.590;2023-05-16T00:04:55;11.50;;;9.80;;
51525;SDS011;37611;51.794;21.590;2023-05-16T00:08:58;10.50;;;8.80;;
51525;SDS011;37611;51.794;21.590;2023-05-16T00:13:00;9.70;;;8.90;;
51525;SDS011;37611;51.794;21.590;2023-05-16T00:17:02;9.50;;;8.60;;
51525;SDS011;37611;51.794;21.590;2023-05-16T00:21:11;9.60;;;8.10;;
51525;SDS011;37611;51.794;21.590;2023-05-16T00:25:14;9.60;;;8.70;;
51525;SDS011;37611;51.794;21.590;2023-05-16T00:29:16;9.20;;;8.30;;
51525;SDS011;37611;51.794;21.590;2023-05-16T00:33:17;9.50;;;8.60;;
51525;SDS011;37611;51.794;21.590;2023-05-16T00:37:19;9.70;;;8.60;;
51525;SDS011;37611;51.794;21.590;2023-05-16T00:41:21;9.60;;;8.70;;
51525;SDS011;37611;51.794;21.590;2023-05-16T00:45:24;7.90;;;7.20;;
51525;SDS011;37611;51.794;21.590;2023-05-16T00:49:25;9.60;;;8.70;;
51525;SDS011;37611;51.794;21.590;2023-05-16T00:53:28;8.60;;;7.80;;
51525;SDS011;37611;51.794;21.590;2023-05-16T00:57:29;8.90;;;8.00;;
51525;SDS011;37611;51.794;21.590;2023-05-16T01:01:32;8.60;;;7.70;;
51525;SDS011;37611;51.794;21.590;2023-05-16T01:05:36;8.50;;;7.50;;
51525;SDS011;37611;51.794;21.590;2023-05-16T01:09:38;8.70;;;7.40;;
51525;SDS011;37611;51.794;21.590;2023-05-16T01:18:16;8.00;;;7.10;;
51525;SDS011;37611;51.794;21.590;2023-05-16T01:26:37;7.30;;;6.70;;
51525;SDS011;37611;51.794;21.590;2023-05-16T01:30:41;7.30;;;6.40;;
51525;SDS011;37611;51.794;21.590;2023-05-16T01:34:43;6.60;;;5.90;;
51525;SDS011;37611;51.794;21.590;2023-05-16T01:42:59;6.30;;;5.60;;
51525;SDS011;37611;51.794;21.590;2023-05-16T01:47:11;7.10;;;6.50;;
51525;SDS011;37611;51.794;21.590;2023-05-16T01:51:14;8.80;;;6.70;;
51525;SDS011;37611;51.794;21.590;2023-05-16T01:55:23;7.00;;;6.30;;
51525;SDS011;37611;51.794;21.590;2023-05-16T01:59:39;7.30;;;6.30;;
51525;SDS011;37611;51.794;21.590;2023-05-16T02:03:43;6.40;;;5.80;;
51525;SDS011;37611;51.794;21.590;2023-05-16T02:07:45;6.70;;;6.10;;
51525;SDS011;37611;51.794;21.590;2023-05-16T02:11:47;7.90;;;6.40;;
51525;SDS011;37611;51.794;21.590;2023-05-16T02:15:49;6.60;;;5.90;;
51525;SDS011;37611;51.794;21.590;2023-05-16T02:19:51;6.20;;;5.60;;
51525;SDS011;37611;51.794;21.590;2023-05-16T02:23:53;6.20;;;5.60;;
51525;SDS011;37611;51.794;21.590;2023-05-16T02:27:55;6.70;;;6.00;;
51525;SDS011;37611;51.794;21.590;2023-05-16T02:31:57;6.90;;;5.70;;
51525;SDS011;37611;51.794;21.590;2023-05-16T02:35:59;6.30;;;5.70;;
51525;SDS011;37611;51.794;21.590;2023-05-16T02:40:01;5.80;;;5.30;;
51525;SDS011;37611;51.794;21.590;2023-05-16T02:44:05;6.80;;;5.70;;
51525;SDS011;37611;51.794;21.590;2023-05-16T02:48:07;6.40;;;5.50;;
51525;SDS011;37611;51.794;21.590;2023-05-16T02:52:09;6.50;;;5.20;;
51525;SDS011;37611;51.794;21.590;2023-05-16T02:56:12;5.90;;;5.30;;
51525;SDS011;37611;51.794;21.590;2023-05-16T03:00:14;6.20;;;5.60;;
51525;SDS011;37611;51.794;21.590;2023-05-16T03:04:16;6.30;;;5.50;;
51525;SDS011;37611;51.794;21.590;2023-05-16T03:08:18;6.80;;;6.10;;
51525;SDS011;37611;51.794;21.590;2023-05-16T03:12:20;7.60;;;5.60;;
51525;SDS011;37611;51.794;21.590;2023-05-16T03:16:22;8.40;;;5.60;;
51525;SDS011;37611;51.794;21.590;2023-05-16T03:20:23;6.70;;;5.80;;
51525;SDS011;37611;51.794;21.590;2023-05-16T03:24:25;7.60;;;5.40;;
51525;SDS011;37611;51.794;21.590;2023-05-16T03:28:27;7.60;;;5.90;;
51525;SDS011;37611;51.794;21.590;2023-05-16T03:32:29;6.00;;;5.40;;
51525;SDS011;37611;51.794;21.590;2023-05-16T03:36:31;5.70;;;5.20;;
51525;SDS011;37611;51.794;21.590;2023-05-16T03:40:33;6.60;;;5.40;;
51525;SDS011;37611;51.794;21.590;2023-05-16T03:44:34;5.80;;;5.30;;
51525;SDS011;37611;51.794;21.590;2023-05-16T03:48:36;6.00;;;5.20;;
51525;SDS011;37611;51.794;21.590;2023-05-16T03:52:38;5.30;;;4.70;;
51525;SDS011;37611;51.794;21.590;2023-05-16T03:56:40;6.90;;;5.20;;
51525;SDS011;37611;51.794;21.590;2023-05-16T04:00:42;4.90;;;4.20;;
51525;SDS011;37611;51.794;21.590;2023-05-16T04:04:43;5.50;;;5.00;;
51525;SDS011;37611;51.794;21.590;2023-05-16T04:08:46;5.10;;;4.60;;
51525;SDS011;37611;51.794;21.590;2023-05-16T04:12:48;5.20;;;4.30;;
51525;SDS011;37611;51.794;21.590;2023-05-16T04:16:50;4.50;;;4.00;;
51525;SDS011;37611;51.794;21.590;2023-05-16T04:20:52;8.20;;;4.40;;
51525;SDS011;37611;51.794;21.590;2023-05-16T04:24:53;4.80;;;4.30;;
51525;SDS011;37611;51.794;21.590;2023-05-16T04:28:56;6.30;;;4.30;;
51525;SDS011;37611;51.794;21.590;2023-05-16T04:32:58;4.80;;;4.30;;
51525;SDS011;37611;51.794;21.590;2023-05-16T04:37:00;6.40;;;4.10;;
51525;SDS011;37611;51.794;21.590;2023-05-16T04:41:02;4.80;;;4.10;;
51525;SDS011;37611;51.794;21.590;2023-05-16T04:45:04;4.70;;;4.20;;
51525;SDS011;37611;51.794;21.590;2023-05-16T04:49:11;4.50;;;3.80;;
51525;SDS011;37611;51.794;21.590;2023-05-16T04:53:13;8.20;;;4.00;;
51525;SDS011;37611;51.794;21.590;2023-05-16T04:57:15;5.20;;;4.20;;
51525;SDS011;37611;51.794;21.590;2023-05-16T05:01:17;5.90;;;4.00;;
51525;SDS011;37611;51.794;21.590;2023-05-16T05:05:19;5.30;;;4.20;;
51525;SDS011;37611;51.794;21.590;2023-05-16T05:09:21;5.00;;;4.40;;
51525;SDS011;37611;51.794;21.590;2023-05-16T05:13:23;6.00;;;4.60;;
51525;SDS011;37611;51.794;21.590;2023-05-16T05:17:25;5.80;;;4.30;;
51525;SDS011;37611;51.794;21.590;2023-05-16T05:21:27;4.50;;;4.10;;
51525;SDS011;37611;51.794;21.590;2023-05-16T05:25:31;6.30;;;4.70;;
51525;SDS011;37611;51.794;21.590;2023-05-16T05:29:34;6.00;;;4.50;;
51525;SDS011;37611;51.794;21.590;2023-05-16T05:33:36;4.40;;;4.00;;
51525;SDS011;37611;51.794;21.590;2023-05-16T05:37:37;5.70;;;4.60;;
51525;SDS011;37611;51.794;21.590;2023-05-16T05:41:39;6.30;;;4.70;;
51525;SDS011;37611;51.794;21.590;2023-05-16T05:45:41;5.40;;;4.70;;
51525;SDS011;37611;51.794;21.590;2023-05-16T05:49:44;5.90;;;5.00;;
51525;SDS011;37611;51.794;21.590;2023-05-16T05:53:46;5.70;;;5.00;;
51525;SDS011;37611;51.794;21.590;2023-05-16T05:57:48;7.10;;;5.00;;
51525;SDS011;37611;51.794;21.590;2023-05-16T06:01:49;6.30;;;5.10;;
51525;SDS011;37611;51.794;21.590;2023-05-16T06:05:52;7.30;;;4.70;;
51525;SDS011;37611;51.794;21.590;2023-05-16T06:09:54;4.90;;;4.30;;
51525;SDS011;37611;51.794;21.590;2023-05-16T06:13:56;5.80;;;4.20;;
51525;SDS011;37611;51.794;21.590;2023-05-16T06:17:58;5.70;;;4.60;;
51525;SDS011;37611;51.794;21.590;2023-05-16T06:22:00;4.70;;;4.00;;
51525;SDS011;37611;51.794;21.590;2023-05-16T06:26:02;5.00;;;4.50;;
51525;SDS011;37611;51.794;21.590;2023-05-16T06:30:04;4.70;;;4.20;;
51525;SDS011;37611;51.794;21.590;2023-05-16T06:34:07;6.60;;;4.20;;
51525;SDS011;37611;51.794;21.590;2023-05-16T06:38:08;6.70;;;4.30;;
51525;SDS011;37611;51.794;21.590;2023-05-16T06:42:10;8.20;;;4.30;;
51525;SDS011;37611;51.794;21.590;2023-05-16T06:46:13;8.30;;;4.50;;
51525;SDS011;37611;51.794;21.590;2023-05-16T06:50:15;4.40;;;3.90;;
51525;SDS011;37611;51.794;21.590;2023-05-16T06:54:17;5.90;;;4.00;;
51525;SDS011;37611;51.794;21.590;2023-05-16T06:58:23;4.70;;;3.60;;
51525;SDS011;37611;51.794;21.590;2023-05-16T07:02:30;4.60;;;3.90;;
51525;SDS011;37611;51.794;21.590;2023-05-16T07:06:32;4.40;;;3.60;;
51525;SDS011;37611;51.794;21.590;2023-05-16T07:10:34;4.70;;;4.20;;
51525;SDS011;37611;51.794;21.590;2023-05-16T07:14:36;5.00;;;4.20;;
51525;SDS011;37611;51.794;21.590;2023-05-16T07:18:37;5.70;;;4.50;;
51525;SDS011;37611;51.794;21.590;2023-05-16T07:22:39;7.40;;;4.40;;
51525;SDS011;37611;51.794;21.590;2023-05-16T07:26:41;7.50;;;4.90;;
51525;SDS011;37611;51.794;21.590;2023-05-16T07:30:43;7.50;;;5.10;;
51525;SDS011;37611;51.794;21.590;2023-05-16T07:34:44;6.70;;;4.40;;
51525;SDS011;37611;51.794;21.590;2023-05-16T07:38:46;7.80;;;5.10;;
51525;SDS011;37611;51.794;21.590;2023-05-16T07:42:49;5.10;;;4.60;;
51525;SDS011;37611;51.794;21.590;2023-05-16T07:46:50;5.60;;;4.10;;
51525;SDS011;37611;51.794;21.590;2023-05-16T07:50:52;5.40;;;4.30;;
51525;SDS011;37611;51.794;21.590;2023-05-16T07:54:54;6.90;;;4.40;;
51525;SDS011;37611;51.794;21.590;2023-05-16T07:58:56;5.50;;;4.40;;
51525;SDS011;37611;51.794;21.590;2023-05-16T08:02:58;5.70;;;3.80;;
51525;SDS011;37611;51.794;21.590;2023-05-16T08:07:02;6.00;;;4.10;;
51525;SDS011;37611;51.794;21.590;2023-05-16T08:11:09;8.60;;;4.50;;
51525;SDS011;37611;51.794;21.590;2023-05-16T08:15:11;5.00;;;3.40;;
51525;SDS011;37611;51.794;21.590;2023-05-16T08:19:13;5.20;;;4.50;;
51525;SDS011;37611;51.794;21.590;2023-05-16T08:23:15;6.40;;;3.90;;
51525;SDS011;37611;51.794;21.590;2023-05-16T08:27:17;3.50;;;3.20;;
51525;SDS011;37611;51.794;21.590;2023-05-16T08:31:18;3.70;;;3.40;;
51525;SDS011;37611;51.794;21.590;2023-05-16T08:35:21;4.20;;;3.50;;
51525;SDS011;37611;51.794;21.590;2023-05-16T08:39:23;4.40;;;3.70;;
51525;SDS011;37611;51.794;21.590;2023-05-16T08:43:24;6.80;;;3.60;;
51525;SDS011;37611;51.794;21.590;2023-05-16T08:47:26;5.70;;;3.60;;
51525;SDS011;37611;51.794;21.590;2023-05-16T08:51:32;4.90;;;3.90;;
51525;SDS011;37611;51.794;21.590;2023-05-16T08:55:37;5.50;;;3.50;;
51525;SDS011;37611;51.794;21.590;2023-05-16T08:59:41;5.50;;;3.30;;
51525;SDS011;37611;51.794;21.590;2023-05-16T09:03:44;3.70;;;3.40;;
51525;SDS011;37611;51.794;21.590;2023-05-16T09:07:46;7.10;;;3.20;;
51525;SDS011;37611;51.794;21.590;2023-05-16T09:11:48;3.90;;;3.50;;
51525;SDS011;37611;51.794;21.590;2023-05-16T09:20:25;3.50;;;3.10;;
51525;SDS011;37611;51.794;21.590;2023-05-16T09:24:27;3.90;;;3.20;;
51525;SDS011;37611;51.794;21.590;2023-05-16T09:28:29;8.00;;;7.20;;
51525;SDS011;37611;51.794;21.590;2023-05-16T09:32:32;5.10;;;2.90;;
51525;SDS011;37611;51.794;21.590;2023-05-16T09:36:33;5.30;;;3.60;;
51525;SDS011;37611;51.794;21.590;2023-05-16T09:40:38;3.70;;;3.40;;
51525;SDS011;37611;51.794;21.590;2023-05-16T09:44:45;5.40;;;4.50;;
51525;SDS011;37611;51.794;21.590;2023-05-16T09:52:52;4.70;;;3.90;;
51525;SDS011;37611;51.794;21.590;2023-05-16T09:56:54;4.40;;;3.80;;
51525;SDS011;37611;51.794;21.590;2023-05-16T10:00:56;3.90;;;3.60;;
51525;SDS011;37611;51.794;21.590;2023-05-16T10:04:59;4.50;;;4.10;;
51525;SDS011;37611;51.794;21.590;2023-05-16T10:09:01;5.60;;;3.80;;
51525;SDS011;37611;51.794;21.590;2023-05-16T10:13:04;7.30;;;4.50;;
51525;SDS011;37611;51.794;21.590;2023-05-16T10:17:09;5.90;;;3.60;;
51525;SDS011;37611;51.794;21.590;2023-05-16T10:21:16;4.30;;;3.40;;
51525;SDS011;37611;51.794;21.590;2023-05-16T10:29:36;4.00;;;3.70;;
51525;SDS011;37611;51.794;21.590;2023-05-16T10:33:39;6.80;;;3.60;;
51525;SDS011;37611;51.794;21.590;2023-05-16T10:37:42;3.40;;;3.10;;
51525;SDS011;37611;51.794;21.590;2023-05-16T10:41:44;5.80;;;3.90;;
51525;SDS011;37611;51.794;21.590;2023-05-16T10:45:52;3.90;;;3.60;;
51525;SDS011;37611;51.794;21.590;2023-05-16T10:49:55;5.00;;;3.70;;
51525;SDS011;37611;51.794;21.590;2023-05-16T10:54:03;4.80;;;3.50;;
51525;SDS011;37611;51.794;21.590;2023-05-16T10:58:06;6.30;;;4.50;;
51525;SDS011;37611;51.794;21.590;2023-05-16T11:10:41;6.30;;;5.70;;
51525;SDS011;37611;51.794;21.590;2023-05-16T11:14:42;8.40;;;6.80;;
51525;SDS011;37611;51.794;21.590;2023-05-16T11:18:49;4.40;;;4.00;;
51525;SDS011;37611;51.794;21.590;2023-05-16T11:23:00;3.80;;;3.40;;
51525;SDS011;37611;51.794;21.590;2023-05-16T11:28:03;4.00;;;3.60;;
51525;SDS011;37611;51.794;21.590;2023-05-16T11:31:46;3.90;;;3.60;;
51525;SDS011;37611;51.794;21.590;2023-05-16T11:36:02;4.20;;;3.80;;
51525;SDS011;37611;51.794;21.590;2023-05-16T11:40:06;7.20;;;3.40;;
51525;SDS011;37611;51.794;21.590;2023-05-16T11:44:12;4.30;;;3.90;;
51525;SDS011;37611;51.794;21.590;2023-05-16T11:48:14;5.00;;;3.80;;
51525;SDS011;37611;51.794;21.590;2023-05-16T11:52:16;4.50;;;3.50;;
51525;SDS011;37611;51.794;21.590;2023-05-16T11:56:19;4.40;;;3.90;;
51525;SDS011;37611;51.794;21.590;2023-05-16T12:00:22;6.30;;;5.30;;
51525;SDS011;37611;51.794;21.590;2023-05-16T12:04:26;3.90;;;3.50;;
51525;SDS011;37611;51.794;21.590;2023-05-16T12:08:28;3.30;;;3.00;;
51525;SDS011;37611;51.794;21.590;2023-05-16T12:12:31;3.90;;;3.10;;
51525;SDS011;37611;51.794;21.590;2023-05-16T12:16:33;4.20;;;3.10;;
51525;SDS011;37611;51.794;21.590;2023-05-16T12:20:37;4.80;;;3.80;;
51525;SDS011;37611;51.794;21.590;2023-05-16T12:24:39;4.20;;;2.90;;
51525;SDS011;37611;51.794;21.590;2023-05-16T12:28:41;3.20;;;2.90;;
51525;SDS011;37611;51.794;21.590;2023-05-16T12:32:44;4.00;;;2.60;;
51525;SDS011;37611;51.794;21.590;2023-05-16T12:36:49;4.50;;;2.90;;
51525;SDS011;37611;51.794;21.590;2023-05-16T12:40:56;2.60;;;2.40;;
51525;SDS011;37611;51.794;21.590;2023-05-16T12:44:58;2.60;;;2.40;;
51525;SDS011;37611;51.794;21.590;2023-05-16T12:49:01;3.80;;;2.70;;
51525;SDS011;37611;51.794;21.590;2023-05-16T12:53:09;2.80;;;2.20;;
51525;SDS011;37611;51.794;21.590;2023-05-16T12:57:13;2.90;;;2.50;;
51525;SDS011;37611;51.794;21.590;2023-05-16T13:01:15;2.60;;;2.40;;
51525;SDS011;37611;51.794;21.590;2023-05-16T13:05:18;2.40;;;2.20;;
51525;SDS011;37611;51.794;21.590;2023-05-16T13:09:21;2.70;;;2.10;;
51525;SDS011;37611;51.794;21.590;2023-05-16T13:13:23;3.10;;;1.80;;
51525;SDS011;37611;51.794;21.590;2023-05-16T13:17:25;4.00;;;2.00;;
51525;SDS011;37611;51.794;21.590;2023-05-16T13:21:27;2.50;;;1.70;;
51525;SDS011;37611;51.794;21.590;2023-05-16T13:25:32;2.40;;;1.80;;
51525;SDS011;37611;51.794;21.590;2023-05-16T13:29:34;3.70;;;1.80;;
51525;SDS011;37611;51.794;21.590;2023-05-16T13:33:36;1.70;;;1.50;;
51525;SDS011;37611;51.794;21.590;2023-05-16T13:37:38;2.20;;;1.70;;
51525;SDS011;37611;51.794;21.590;2023-05-16T13:41:41;2.40;;;1.60;;
51525;SDS011;37611;51.794;21.590;2023-05-16T13:45:43;2.20;;;1.60;;
51525;SDS011;37611;51.794;21.590;2023-05-16T13:49:45;3.70;;;1.70;;
51525;SDS011;37611;51.794;21.590;2023-05-16T13:53:48;5.30;;;1.60;;
51525;SDS011;37611;51.794;21.590;2023-05-16T13:57:52;2.00;;;1.60;;
51525;SDS011;37611;51.794;21.590;2023-05-16T14:01:54;3.00;;;1.70;;
51525;SDS011;37611;51.794;21.590;2023-05-16T14:05:56;1.80;;;1.40;;
51525;SDS011;37611;51.794;21.590;2023-05-16T14:09:58;1.10;;;1.00;;
51525;SDS011;37611;51.794;21.590;2023-05-16T14:14:00;1.80;;;1.10;;
51525;SDS011;37611;51.794;21.590;2023-05-16T14:18:02;2.90;;;1.20;;
51525;SDS011;37611;51.794;21.590;2023-05-16T14:22:05;2.60;;;1.50;;
51525;SDS011;37611;51.794;21.590;2023-05-16T14:26:07;8.20;;;1.20;;
51525;SDS011;37611;51.794;21.590;2023-05-16T14:30:09;2.50;;;1.10;;
51525;SDS011;37611;51.794;21.590;2023-05-16T14:34:11;2.20;;;1.40;;
51525;SDS011;37611;51.794;21.590;2023-05-16T14:38:13;2.90;;;1.30;;
51525;SDS011;37611;51.794;21.590;2023-05-16T14:42:15;1.30;;;1.20;;
51525;SDS011;37611;51.794;21.590;2023-05-16T14:46:18;2.40;;;1.30;;
51525;SDS011;37611;51.794;21.590;2023-05-16T14:50:20;3.10;;;1.20;;
51525;SDS011;37611;51.794;21.590;2023-05-16T14:54:22;9.00;;;1.40;;
51525;SDS011;37611;51.794;21.590;2023-05-16T14:58:24;1.10;;;1.00;;
51525;SDS011;37611;51.794;21.590;2023-05-16T15:02:25;3.30;;;1.50;;
51525;SDS011;37611;51.794;21.590;2023-05-16T15:06:27;13.50;;;10.80;;
51525;SDS011;37611;51.794;21.590;2023-05-16T15:10:29;5.30;;;2.50;;
51525;SDS011;37611;51.794;21.590;2023-05-16T15:14:31;2.90;;;1.40;;
51525;SDS011;37611;51.794;21.590;2023-05-16T15:18:33;2.90;;;1.20;;
51525;SDS011;37611;51.794;21.590;2023-05-16T15:22:35;3.80;;;1.60;;
51525;SDS011;37611;51.794;21.590;2023-05-16T15:26:37;2.10;;;1.80;;
51525;SDS011;37611;51.794;21.590;2023-05-16T15:30:40;4.00;;;2.30;;
51525;SDS011;37611;51.794;21.590;2023-05-16T15:34:42;3.60;;;2.10;;
51525;SDS011;37611;51.794;21.590;2023-05-16T15:38:43;1.70;;;1.20;;
51525;SDS011;37611;51.794;21.590;2023-05-16T15:42:47;1.90;;;1.60;;
51525;SDS011;37611;51.794;21.590;2023-05-16T15:46:48;2.20;;;1.40;;
51525;SDS011;37611;51.794;21.590;2023-05-16T15:56:07;5.40;;;3.20;;
51525;SDS011;37611;51.794;21.590;2023-05-16T16:00:10;2.10;;;1.70;;
51525;SDS011;37611;51.794;21.590;2023-05-16T16:04:12;3.40;;;2.50;;
51525;SDS011;37611;51.794;21.590;2023-05-16T16:08:14;3.40;;;1.60;;
51525;SDS011;37611;51.794;21.590;2023-05-16T16:12:15;2.80;;;1.60;;
51525;SDS011;37611;51.794;21.590;2023-05-16T16:16:17;2.70;;;1.50;;
51525;SDS011;37611;51.794;21.590;2023-05-16T16:20:19;5.90;;;2.30;;
51525;SDS011;37611;51.794;21.590;2023-05-16T16:29:37;4.00;;;2.10;;
51525;SDS011;37611;51.794;21.590;2023-05-16T16:33:38;4.90;;;2.00;;
51525;SDS011;37611;51.794;21.590;2023-05-16T16:37:41;3.00;;;1.90;;
51525;SDS011;37611;51.794;21.590;2023-05-16T16:41:43;2.60;;;1.80;;
51525;SDS011;37611;51.794;21.590;2023-05-16T16:45:45;2.50;;;1.80;;
51525;SDS011;37611;51.794;21.590;2023-05-16T16:49:47;4.60;;;1.70;;
51525;SDS011;37611;51.794;21.590;2023-05-16T16:53:49;1.80;;;1.60;;
51525;SDS011;37611;51.794;21.590;2023-05-16T16:57:51;3.90;;;1.90;;
51525;SDS011;37611;51.794;21.590;2023-05-16T17:01:53;10.50;;;2.00;;
51525;SDS011;37611;51.794;21.590;2023-05-16T17:05:57;3.50;;;2.10;;
51525;SDS011;37611;51.794;21.590;2023-05-16T17:09:59;2.90;;;1.70;;
51525;SDS011;37611;51.794;21.590;2023-05-16T17:14:01;1.90;;;1.70;;
51525;SDS011;37611;51.794;21.590;2023-05-16T17:18:09;3.30;;;1.90;;
51525;SDS011;37611;51.794;21.590;2023-05-16T17:22:11;2.80;;;1.90;;
51525;SDS011;37611;51.794;21.590;2023-05-16T17:26:14;4.70;;;1.70;;
51525;SDS011;37611;51.794;21.590;2023-05-16T17:30:17;2.00;;;1.50;;
51525;SDS011;37611;51.794;21.590;2023-05-16T17:34:24;2.70;;;2.10;;
51525;SDS011;37611;51.794;21.590;2023-05-16T17:38:30;3.00;;;1.80;;
51525;SDS011;37611;51.794;21.590;2023-05-16T17:42:32;3.70;;;2.10;;
51525;SDS011;37611;51.794;21.590;2023-05-16T17:46:34;3.90;;;2.10;;
51525;SDS011;37611;51.794;21.590;2023-05-16T20:57:39;5.90;;;4.80;;
51525;SDS011;37611;51.794;21.590;2023-05-16T21:01:41;9.00;;;5.50;;
51525;SDS011;37611;51.794;21.590;2023-05-16T21:05:43;5.70;;;4.10;;
51525;SDS011;37611;51.794;21.590;2023-05-16T21:09:45;4.70;;;4.30;;
51525;SDS011;37611;51.794;21.590;2023-05-16T21:13:49;4.60;;;4.20;;
51525;SDS011;37611;51.794;21.590;2023-05-16T21:17:52;5.40;;;4.90;;
51525;SDS011;37611;51.794;21.590;2023-05-16T21:21:54;5.80;;;5.20;;
51525;SDS011;37611;51.794;21.590;2023-05-16T21:25:55;12.10;;;7.20;;
51525;SDS011;37611;51.794;21.590;2023-05-16T21:29:57;9.20;;;6.50;;
51525;SDS011;37611;51.794;21.590;2023-05-16T21:33:59;9.40;;;6.20;;
51525;SDS011;37611;51.794;21.590;2023-05-16T21:38:01;4.80;;;4.10;;
51525;SDS011;37611;51.794;21.590;2023-05-16T21:42:03;5.70;;;4.90;;
51525;SDS011;37611;51.794;21.590;2023-05-16T21:46:05;6.90;;;4.50;;
51525;SDS011;37611;51.794;21.590;2023-05-16T21:50:07;5.30;;;4.70;;
51525;SDS011;37611;51.794;21.590;2023-05-16T21:54:10;5.40;;;4.80;;
51525;SDS011;37611;51.794;21.590;2023-05-16T21:58:12;9.20;;;5.80;;
51525;SDS011;37611;51.794;21.590;2023-05-16T22:02:14;7.60;;;5.70;;
51525;SDS011;37611;51.794;21.590;2023-05-16T22:06:16;7.30;;;6.40;;
51525;SDS011;37611;51.794;21.590;2023-05-16T22:10:17;7.80;;;7.00;;
51525;SDS011;37611;51.794;21.590;2023-05-16T22:14:19;8.90;;;7.30;;
51525;SDS011;37611;51.794;21.590;2023-05-16T22:18:21;10.40;;;7.30;;
51525;SDS011;37611;51.794;21.590;2023-05-16T22:22:24;7.90;;;7.20;;
51525;SDS011;37611;51.794;21.590;2023-05-16T22:26:29;10.90;;;9.40;;
51525;SDS011;37611;51.794;21.590;2023-05-16T22:30:33;10.40;;;9.00;;
51525;SDS011;37611;51.794;21.590;2023-05-16T22:34:35;8.60;;;7.80;;
51525;SDS011;37611;51.794;21.590;2023-05-16T22:38:43;8.80;;;7.80;;
51525;SDS011;37611;51.794;21.590;2023-05-16T22:42:46;8.80;;;7.80;;
51525;SDS011;37611;51.794;21.590;2023-05-16T22:46:51;9.20;;;8.30;;
